createdAt,value
2019-04-11T00:00:35.351Z,24.13
2019-04-11T00:02:39.187Z,22.97
2019-04-11T00:04:43.056Z,22.23
2019-04-11T00:06:47.843Z,22.63
2019-04-11T00:08:52.328Z,23.43
2019-04-11T00:10:56.204Z,20.27
2019-04-11T00:13:01.103Z,22.00
2019-04-11T00:15:06.428Z,26.57
2019-04-11T00:17:10.255Z,20.80
2019-04-11T00:19:13.949Z,22.50
2019-04-11T00:21:17.623Z,26.87
2019-04-11T00:23:21.818Z,22.93
2019-04-11T00:25:25.627Z,20.93
2019-04-11T00:27:29.312Z,22.60
2019-04-11T00:29:34.437Z,23.87
2019-04-11T00:31:39.050Z,21.13
2019-04-11T00:33:42.937Z,19.67
2019-04-11T00:35:46.627Z,23.90
2019-04-11T00:37:50.300Z,20.83
2019-04-11T00:39:54.182Z,22.17
2019-04-11T00:41:58.653Z,25.13
2019-04-11T00:44:03.016Z,20.83
2019-04-11T00:46:07.795Z,21.17
2019-04-11T00:48:11.651Z,21.03
2019-04-11T00:50:15.438Z,23.57
2019-04-11T00:52:19.099Z,23.30
2019-04-11T00:54:22.887Z,19.43
2019-04-11T00:56:28.595Z,22.93
2019-04-11T00:58:32.316Z,19.67
2019-04-11T01:00:37.068Z,23.43
2019-04-11T01:02:43.232Z,19.87
2019-04-11T01:04:47.089Z,20.87
2019-04-11T01:06:50.734Z,18.83
2019-04-11T01:08:54.421Z,21.90
2019-04-11T01:10:59.324Z,17.33
2019-04-11T01:13:03.123Z,22.27
2019-04-11T01:15:08.678Z,23.77
2019-04-11T01:17:12.817Z,19.53
2019-04-11T01:19:16.501Z,19.97
2019-04-11T01:21:20.191Z,22.80
2019-04-11T01:23:23.850Z,22.60
2019-04-11T01:25:28.468Z,24.53
2019-04-11T01:27:32.293Z,26.13
2019-04-11T01:29:35.945Z,19.50
2019-04-11T01:31:42.747Z,20.53
2019-04-11T01:33:46.686Z,22.40
2019-04-11T01:35:50.450Z,21.20
2019-04-11T01:37:54.114Z,24.97
2019-04-11T01:39:59.473Z,22.37
2019-04-11T01:42:04.892Z,20.77
2019-04-11T01:44:08.954Z,20.67
2019-04-11T01:46:13.956Z,19.53
2019-04-11T01:48:19.639Z,21.03
2019-04-11T01:50:25.172Z,19.27
2019-04-11T01:52:29.071Z,22.57
2019-04-11T01:54:32.782Z,24.07
2019-04-11T01:56:37.035Z,22.70
2019-04-11T01:58:40.885Z,26.40
2019-04-11T02:01:01.199Z,17.57
2019-04-11T02:03:06.850Z,17.30
2019-04-11T02:05:14.886Z,19.37
2019-04-11T02:07:18.574Z,19.60
2019-04-11T02:09:24.091Z,21.47
2019-04-11T02:11:27.878Z,21.87
2019-04-11T02:13:32.165Z,21.13
2019-04-11T02:15:36.674Z,22.43
2019-04-11T02:17:41.133Z,23.23
2019-04-11T02:19:44.915Z,21.67
2019-04-11T02:21:49.930Z,19.03
2019-04-11T02:23:57.967Z,18.73
2019-04-11T02:26:07.057Z,21.53
2019-04-11T02:28:12.747Z,19.43
2019-04-11T02:30:20.035Z,18.70
2019-04-11T02:32:25.367Z,19.77
2019-04-11T02:34:29.689Z,24.30
2019-04-11T02:36:34.264Z,20.07
2019-04-11T02:38:39.531Z,23.10
2019-04-11T02:40:45.367Z,18.57
2019-04-11T02:42:50.360Z,22.40
2019-04-11T02:45:09.269Z,18.77
2019-04-11T02:47:07.880Z,21.53
2019-04-11T02:49:06.779Z,23.77
2019-04-11T02:51:12.453Z,17.70
2019-04-11T02:53:17.068Z,18.77
2019-04-11T02:55:21.347Z,20.93
2019-04-11T02:57:25.852Z,18.97
2019-04-11T02:59:30.298Z,20.70
2019-04-11T03:01:35.864Z,23.07
2019-04-11T03:03:41.676Z,19.47
2019-04-11T03:05:46.854Z,19.83
2019-04-11T03:07:50.595Z,20.00
2019-04-11T03:09:56.474Z,23.07
2019-04-11T03:11:59.790Z,22.83
2019-04-11T03:14:04.118Z,18.80
2019-04-11T03:16:23.645Z,28.67
2019-04-11T03:18:33.258Z,23.40
2019-04-11T03:20:26.475Z,21.60
2019-04-11T03:22:24.829Z,24.00
2019-04-11T03:24:31.060Z,24.37
2019-04-11T03:26:35.497Z,23.73
2019-04-11T03:28:46.310Z,20.77
2019-04-11T03:31:21.945Z,23.97
2019-04-11T03:35:52.294Z,26.87
2019-04-11T03:37:28.394Z,24.23
2019-04-11T03:39:28.205Z,20.60
2019-04-11T03:41:26.709Z,28.03
2019-04-11T03:43:30.215Z,23.53
2019-04-11T03:45:48.059Z,28.90
2019-04-11T03:47:42.432Z,21.10
2019-04-11T03:49:44.821Z,21.07
2019-04-11T03:51:43.618Z,23.03
2019-04-11T03:53:49.084Z,25.07
2019-04-11T03:55:53.784Z,21.57
2019-04-11T03:57:59.185Z,22.60
2019-04-11T04:00:06.361Z,23.70
2019-04-11T04:02:12.278Z,24.73
2019-04-11T04:04:18.870Z,23.60
2019-04-11T04:06:21.076Z,27.63
2019-04-11T04:08:26.838Z,24.10
2019-04-11T04:10:31.795Z,23.13
2019-04-11T04:12:37.702Z,24.93
2019-04-11T04:14:45.285Z,23.43
2019-04-11T04:17:03.673Z,24.73
2019-04-11T04:19:24.841Z,24.53
2019-04-11T04:21:31.174Z,28.70
2019-04-11T04:23:40.934Z,24.63
2019-04-11T04:25:47.153Z,25.57
2019-04-11T04:27:51.297Z,26.73
2019-04-11T04:29:57.742Z,26.37
2019-04-11T04:32:00.654Z,23.00
2019-04-11T04:34:07.307Z,23.10
2019-04-11T04:36:11.883Z,25.07
2019-04-11T04:38:16.661Z,23.97
2019-04-11T04:40:40.271Z,23.43
2019-04-11T04:42:32.132Z,23.47
2019-04-11T04:44:31.689Z,24.33
2019-04-11T04:46:54.835Z,25.60
2019-04-11T04:48:42.606Z,26.77
2019-04-11T04:50:46.774Z,28.53
2019-04-11T04:52:51.560Z,27.27
2019-04-11T04:54:57.698Z,25.87
2019-04-11T04:57:02.885Z,22.37
2019-04-11T04:59:07.588Z,22.53
2019-04-11T05:01:12.694Z,22.77
2019-04-11T05:03:17.750Z,27.37
2019-04-11T05:05:22.071Z,26.40
2019-04-11T05:07:29.272Z,25.33
2019-04-11T05:09:32.051Z,25.60
2019-04-11T05:11:36.238Z,26.57
2019-04-11T05:13:40.891Z,24.27
2019-04-11T05:15:45.424Z,25.13
2019-04-11T05:17:49.245Z,24.67
2019-04-11T05:19:54.349Z,29.53
2019-04-11T05:21:58.169Z,27.90
2019-04-11T05:24:02.069Z,25.17
2019-04-11T05:26:06.854Z,27.53
2019-04-11T05:28:12.013Z,25.73
2019-04-11T05:30:16.735Z,27.87
2019-04-11T05:32:21.813Z,25.47
2019-04-11T05:34:25.864Z,26.93
2019-04-11T05:36:30.422Z,27.17
2019-04-11T05:38:34.306Z,24.50
2019-04-11T05:40:37.988Z,31.07
2019-04-11T05:42:41.772Z,26.20
2019-04-11T05:44:45.570Z,29.40
2019-04-11T05:46:55.718Z,27.03
2019-04-11T05:49:00.545Z,26.73
2019-04-11T05:51:01.627Z,30.30
2019-04-11T05:53:05.603Z,28.90
2019-04-11T05:55:13.555Z,31.10
2019-04-11T05:57:22.144Z,27.47
2019-04-11T05:59:24.442Z,26.20
2019-04-11T06:01:34.080Z,24.83
2019-04-11T06:03:41.110Z,31.73
2019-04-11T06:05:56.452Z,26.37
2019-04-11T06:08:00.730Z,26.83
2019-04-11T06:10:24.133Z,28.87
2019-04-11T06:12:41.938Z,26.47
2019-04-11T06:14:59.694Z,26.87
2019-04-11T06:17:05.200Z,33.77
2019-04-11T06:19:19.243Z,27.93
2019-04-11T06:21:31.677Z,25.80
2019-04-11T06:23:49.891Z,30.13
2019-04-11T06:25:55.616Z,30.23
2019-04-11T06:28:01.932Z,30.57
2019-04-11T06:30:22.234Z,25.97
2019-04-11T06:32:34.124Z,24.43
2019-04-11T06:34:49.208Z,28.47
2019-04-11T06:37:13.819Z,30.47
2019-04-11T06:39:35.747Z,27.83
2019-04-11T06:41:44.261Z,25.73
2019-04-11T06:44:04.754Z,28.93
2019-04-11T06:46:27.174Z,26.80
2019-04-11T06:48:35.869Z,23.03
2019-04-11T06:50:41.665Z,24.53
2019-04-11T06:52:46.322Z,27.63
2019-04-11T06:54:52.440Z,27.70
2019-04-11T06:56:57.317Z,31.17
2019-04-11T06:59:03.850Z,24.23
2019-04-11T07:01:09.791Z,29.30
2019-04-11T07:03:22.265Z,25.50
2019-04-11T07:05:22.491Z,27.50
2019-04-11T07:07:29.492Z,25.90
2019-04-11T07:09:34.971Z,23.90
2019-04-11T07:11:46.071Z,27.23
2019-04-11T07:14:08.251Z,30.03
2019-04-11T07:16:13.253Z,27.53
2019-04-11T07:18:37.838Z,30.13
2019-04-11T07:20:52.492Z,29.80
2019-04-11T07:23:14.127Z,27.23
2019-04-11T07:25:22.309Z,31.87
2019-04-11T07:27:26.215Z,27.03
2019-04-11T07:29:44.247Z,25.97
2019-04-11T07:31:50.406Z,28.77
2019-04-11T07:34:08.761Z,27.97
2019-04-11T07:36:31.550Z,23.97
2019-04-11T07:38:54.369Z,27.83
2019-04-11T07:41:00.654Z,29.87
2019-04-11T07:43:11.517Z,27.67
2019-04-11T07:45:23.091Z,32.10
2019-04-11T07:47:32.336Z,34.57
2019-04-11T07:49:47.162Z,28.83
2019-04-11T07:51:52.796Z,26.43
2019-04-11T07:53:56.824Z,29.57
2019-04-11T07:56:02.055Z,26.67
2019-04-11T07:58:22.444Z,30.10
2019-04-11T08:00:40.911Z,27.13
2019-04-11T08:02:46.346Z,26.17
2019-04-11T08:04:57.644Z,29.50
2019-04-11T08:07:02.986Z,26.07
2019-04-11T08:09:09.668Z,31.50
2019-04-11T08:11:17.899Z,33.33
2019-04-11T08:13:28.866Z,28.67
2019-04-11T08:15:50.472Z,31.60
2019-04-11T08:17:54.360Z,25.60
2019-04-11T08:20:17.224Z,27.60
2019-04-11T08:22:41.297Z,28.23
2019-04-11T08:24:53.192Z,28.53
2019-04-11T08:27:07.317Z,28.53
2019-04-11T08:29:14.943Z,36.57
2019-04-11T08:31:27.093Z,28.37
2019-04-11T08:33:32.894Z,30.43
2019-04-11T08:35:38.295Z,27.73
2019-04-11T08:38:02.851Z,34.27
2019-04-11T08:40:09.388Z,29.37
2019-04-11T08:42:17.682Z,34.43
2019-04-11T08:44:21.615Z,31.03
2019-04-11T08:46:26.989Z,30.40
2019-04-11T08:48:33.032Z,35.60
2019-04-11T08:50:38.668Z,27.50
2019-04-11T08:52:49.712Z,28.73
2019-04-11T08:54:55.699Z,29.07
2019-04-11T08:56:59.516Z,28.93
2019-04-11T08:59:13.469Z,29.57
2019-04-11T09:01:22.235Z,28.73
2019-04-11T09:03:37.741Z,32.37
2019-04-11T09:05:55.314Z,33.23
2019-04-11T09:08:04.381Z,29.57
2019-04-11T09:10:35.828Z,31.60
2019-04-11T09:12:42.624Z,26.23
2019-04-11T09:15:04.415Z,28.13
2019-04-11T09:17:16.516Z,33.23
2019-04-11T09:19:27.696Z,30.67
2019-04-11T09:21:34.109Z,33.17
2019-04-11T09:23:38.815Z,32.30
2019-04-11T09:26:03.516Z,34.27
2019-04-11T09:28:11.968Z,32.87
2019-04-11T09:30:21.540Z,27.90
2019-04-11T09:32:42.491Z,29.60
2019-04-11T09:34:48.198Z,30.07
2019-04-11T09:36:57.497Z,29.40
2019-04-11T09:39:19.286Z,31.57
2019-04-11T09:41:40.717Z,28.60
2019-04-11T09:43:46.312Z,29.97
2019-04-11T09:46:08.189Z,30.57
2019-04-11T09:48:29.926Z,33.20
2019-04-11T09:50:36.359Z,37.50
2019-04-11T09:52:51.602Z,31.67
2019-04-11T09:54:57.044Z,30.20
2019-04-11T09:57:02.353Z,29.33
2019-04-11T09:59:14.310Z,35.60
2019-04-11T10:01:35.103Z,26.50
2019-04-11T10:03:39.262Z,31.03
2019-04-11T10:05:48.602Z,29.30
2019-04-11T10:07:54.511Z,34.57
2019-04-11T10:10:02.945Z,31.23
2019-04-11T10:12:24.272Z,30.60
2019-04-11T10:14:29.295Z,32.13
2019-04-11T10:16:37.276Z,29.20
2019-04-11T10:18:49.421Z,31.17
2019-04-11T10:20:55.000Z,32.87
2019-04-11T10:23:01.636Z,26.40
2019-04-11T10:25:08.881Z,31.13
2019-04-11T10:27:20.511Z,29.47
2019-04-11T10:29:37.823Z,30.60
2019-04-11T10:31:46.465Z,32.20
2019-04-11T10:34:06.747Z,30.87
2019-04-11T10:36:21.101Z,32.97
2019-04-11T10:38:24.866Z,31.93
2019-04-11T10:40:46.215Z,29.53
2019-04-11T10:42:50.495Z,35.30
2019-04-11T10:44:58.329Z,30.53
2019-04-11T10:47:08.340Z,32.17
2019-04-11T10:49:30.298Z,34.47
2019-04-11T10:51:45.629Z,33.13
2019-04-11T10:53:51.208Z,31.80
2019-04-11T10:55:57.858Z,34.33
2019-04-11T10:58:06.750Z,31.70
2019-04-11T11:00:15.662Z,31.87
2019-04-11T11:02:37.680Z,33.27
2019-04-11T11:04:43.162Z,34.00
2019-04-11T11:06:48.505Z,37.33
2019-04-11T11:09:08.675Z,32.77
2019-04-11T11:11:15.666Z,31.27
2019-04-11T11:13:21.649Z,33.77
2019-04-11T11:15:29.978Z,36.27
2019-04-11T11:18:20.591Z,33.27
2019-04-11T11:20:15.277Z,37.63
2019-04-11T11:22:27.379Z,32.50
2019-04-11T11:24:33.670Z,37.53
2019-04-11T11:26:38.884Z,36.23
2019-04-11T11:28:44.504Z,29.80
2019-04-11T11:31:05.740Z,34.73
2019-04-11T11:33:10.990Z,32.93
2019-04-11T11:35:22.468Z,32.73
2019-04-11T11:37:37.851Z,33.77
2019-04-11T11:39:43.669Z,33.30
2019-04-11T11:42:06.174Z,35.50
2019-04-11T11:44:11.668Z,32.93
2019-04-11T11:46:17.817Z,36.37
2019-04-11T11:48:36.461Z,37.90
2019-04-11T11:50:40.375Z,35.77
2019-04-11T11:52:48.969Z,38.23
2019-04-11T11:54:53.597Z,33.23
2019-04-11T11:56:58.207Z,35.40
2019-04-11T11:59:09.630Z,38.10
2019-04-11T12:01:15.677Z,35.80
2019-04-11T12:03:27.706Z,36.17
2019-04-11T12:05:30.703Z,37.23
2019-04-11T12:07:42.968Z,36.17
2019-04-11T12:10:04.769Z,35.97
2019-04-11T12:12:10.013Z,38.40
2019-04-11T12:14:31.423Z,35.57
2019-04-11T12:16:36.960Z,34.67
2019-04-11T12:18:48.430Z,34.87
2019-04-11T12:21:01.084Z,37.80
2019-04-11T12:23:06.691Z,38.50
2019-04-11T12:25:14.614Z,35.67
2019-04-11T12:27:20.578Z,37.10
2019-04-11T12:29:45.577Z,37.77
2019-04-11T12:31:50.245Z,42.13
2019-04-11T12:34:12.354Z,35.80
2019-04-11T12:36:18.756Z,37.03
2019-04-11T12:38:24.767Z,35.90
2019-04-11T12:40:46.951Z,38.67
2019-04-11T12:42:50.694Z,37.23
2019-04-11T12:45:12.199Z,40.13
2019-04-11T12:47:20.527Z,37.93
2019-04-11T12:49:25.839Z,37.37
2019-04-11T12:51:47.135Z,36.10
2019-04-11T12:53:50.838Z,37.43
2019-04-11T12:56:13.474Z,36.20
2019-04-11T12:58:30.647Z,38.57
2019-04-11T13:00:41.787Z,38.37
2019-04-11T13:03:05.379Z,35.73
2019-04-11T13:05:10.736Z,37.00
2019-04-11T13:07:18.825Z,38.50
2019-04-11T13:09:40.671Z,38.33
2019-04-11T13:11:49.174Z,40.23
2019-04-11T13:14:00.146Z,39.10
2019-04-11T13:16:11.817Z,39.03
2019-04-11T13:18:12.367Z,37.00
2019-04-11T13:20:32.496Z,37.70
2019-04-11T13:22:36.247Z,34.17
2019-04-11T13:24:59.424Z,39.30
2019-04-11T13:27:16.705Z,36.70
2019-04-11T13:29:33.547Z,41.53
2019-04-11T13:31:47.708Z,37.80
2019-04-11T13:33:52.948Z,40.37
2019-04-11T13:36:14.601Z,39.17
2019-04-11T13:38:19.875Z,36.87
2019-04-11T13:40:40.202Z,38.23
2019-04-11T13:42:48.087Z,37.30
2019-04-11T13:44:51.754Z,39.07
2019-04-11T13:46:57.007Z,37.97
2019-04-11T13:49:02.266Z,43.03
2019-04-11T13:51:25.403Z,40.77
2019-04-11T13:53:33.474Z,39.07
2019-04-11T13:55:37.159Z,41.13
2019-04-11T13:57:58.910Z,36.30
2019-04-11T14:00:12.859Z,39.63
2019-04-11T14:02:18.095Z,46.90
2019-04-11T14:04:25.971Z,35.43
2019-04-11T14:06:29.621Z,39.47
2019-04-11T14:08:34.895Z,36.03
2019-04-11T14:10:40.363Z,39.60
2019-04-11T14:12:45.330Z,44.23
2019-04-11T14:14:51.859Z,40.70
2019-04-11T14:16:58.415Z,39.17
2019-04-11T14:19:07.170Z,41.83
2019-04-11T14:21:21.561Z,37.50
2019-04-11T14:23:26.805Z,42.30
2019-04-11T14:25:34.877Z,35.63
2019-04-11T14:27:38.662Z,39.80
2019-04-11T14:29:56.095Z,39.47
2019-04-11T14:32:01.359Z,35.13
2019-04-11T14:34:09.074Z,40.27
2019-04-11T14:36:33.610Z,35.03
2019-04-11T14:38:45.643Z,38.07
2019-04-11T14:41:01.886Z,36.50
2019-04-11T14:43:19.607Z,36.73
2019-04-11T14:45:42.835Z,36.47
2019-04-11T14:48:04.148Z,37.77
2019-04-11T14:50:12.892Z,39.87
2019-04-11T14:52:32.886Z,37.10
2019-04-11T14:54:38.207Z,32.93
2019-04-11T14:56:59.620Z,46.07
2019-04-11T14:59:16.830Z,41.30
2019-04-11T15:01:27.970Z,37.60
2019-04-11T15:03:32.291Z,37.93
2019-04-11T15:05:46.134Z,37.03
2019-04-11T15:07:50.059Z,38.83
2019-04-11T15:09:57.875Z,37.07
2019-04-11T15:12:06.131Z,39.03
2019-04-11T15:14:15.770Z,34.80
2019-04-11T15:16:33.242Z,37.13
2019-04-11T15:18:38.477Z,39.40
2019-04-11T15:20:55.242Z,33.97
2019-04-11T15:23:07.070Z,40.33
2019-04-11T15:25:15.267Z,38.17
2019-04-11T15:27:38.552Z,39.10
2019-04-11T15:29:45.439Z,37.47
2019-04-11T15:31:51.980Z,37.97
2019-04-11T15:34:13.632Z,35.00
2019-04-11T15:36:27.623Z,38.07
2019-04-11T15:38:44.158Z,36.17
2019-04-11T15:40:48.742Z,35.97
2019-04-11T15:42:54.174Z,38.63
2019-04-11T15:45:08.258Z,42.67
2019-04-11T15:47:24.970Z,42.10
2019-04-11T15:49:48.021Z,36.67
2019-04-11T15:51:53.279Z,34.43
2019-04-11T15:54:17.106Z,36.87
2019-04-11T15:56:41.846Z,38.40
2019-04-11T15:58:50.023Z,42.77
2019-04-11T16:01:02.519Z,36.57
2019-04-11T16:03:06.938Z,36.60
2019-04-11T16:05:18.473Z,36.97
2019-04-11T16:07:29.648Z,37.07
2019-04-11T16:09:35.914Z,37.87
2019-04-11T16:11:53.230Z,38.30
2019-04-11T16:13:58.581Z,41.40
2019-04-11T16:16:07.164Z,40.33
2019-04-11T16:18:19.916Z,38.63
2019-04-11T16:20:24.317Z,40.93
2019-04-11T16:22:29.566Z,40.83
2019-04-11T16:24:37.329Z,38.37
2019-04-11T16:26:48.324Z,36.83
2019-04-11T16:28:59.523Z,38.07
2019-04-11T16:31:03.227Z,36.70
2019-04-11T16:33:08.561Z,39.07
2019-04-11T16:35:19.635Z,37.27
2019-04-11T16:37:23.307Z,36.93
2019-04-11T16:39:37.594Z,39.57
2019-04-11T16:42:00.748Z,38.27
2019-04-11T16:44:24.874Z,35.97
2019-04-11T16:46:31.528Z,38.30
2019-04-11T16:48:35.203Z,37.50
2019-04-11T16:50:38.894Z,38.93
2019-04-11T16:52:42.579Z,36.77
2019-04-11T16:54:46.261Z,39.90
2019-04-11T16:56:49.985Z,36.13
2019-04-11T16:58:53.655Z,37.27
2019-04-11T17:00:57.337Z,35.57
2019-04-11T17:03:01.030Z,33.27
2019-04-11T17:05:07.242Z,35.37
2019-04-11T17:07:30.359Z,35.53
2019-04-11T17:09:40.614Z,38.57
2019-04-11T17:11:44.306Z,42.80
2019-04-11T17:13:47.988Z,52.57
2019-04-11T17:15:51.741Z,43.27
2019-04-11T17:17:59.734Z,39.53
2019-04-11T17:20:05.832Z,48.20
2019-04-11T17:22:08.715Z,41.93
2019-04-11T17:24:16.753Z,40.70
2019-04-11T17:26:18.362Z,42.13
2019-04-11T17:28:23.093Z,34.13
2019-04-11T17:30:27.435Z,32.30
2019-04-11T17:32:31.147Z,37.27
2019-04-11T17:34:34.931Z,36.50
2019-04-11T17:36:38.690Z,31.97
2019-04-11T17:38:42.383Z,33.10
2019-04-11T17:40:46.089Z,33.00
2019-04-11T17:42:49.750Z,33.63
2019-04-11T17:44:53.458Z,35.97
2019-04-11T17:46:57.392Z,34.60
2019-04-11T17:49:01.215Z,35.47
2019-04-11T17:51:05.696Z,33.60
2019-04-11T17:53:09.762Z,34.73
2019-04-11T17:55:13.448Z,36.13
2019-04-11T17:57:17.147Z,36.37
2019-04-11T17:59:20.846Z,41.77
2019-04-11T18:01:24.510Z,37.67
2019-04-11T18:03:28.503Z,34.87
2019-04-11T18:05:32.274Z,35.40
2019-04-11T18:07:35.969Z,41.87
2019-04-11T18:09:39.880Z,34.53
2019-04-11T18:11:43.539Z,33.67
2019-04-11T18:13:47.223Z,36.40
2019-04-11T18:15:50.890Z,32.27
2019-04-11T18:17:54.567Z,29.73
2019-04-11T18:19:58.265Z,34.50
2019-04-11T18:22:07.789Z,35.97
2019-04-11T18:24:07.465Z,32.47
2019-04-11T18:26:11.143Z,34.93
2019-04-11T18:28:14.806Z,32.20
2019-04-11T18:30:20.903Z,33.10
2019-04-11T18:32:24.461Z,33.60
2019-04-11T18:34:31.573Z,32.17
2019-04-11T18:36:33.565Z,31.33
2019-04-11T18:38:37.281Z,43.53
2019-04-11T18:40:40.956Z,35.10
2019-04-11T18:42:44.610Z,38.57
2019-04-11T18:44:48.304Z,41.07
2019-04-11T18:46:52.236Z,48.80
2019-04-11T18:48:55.920Z,38.17
2019-04-11T18:50:59.702Z,117.50
2019-04-11T18:53:03.421Z,141.40
2019-04-11T18:55:07.846Z,130.17
2019-04-11T18:57:11.509Z,107.20
2019-04-11T18:59:15.306Z,36.53
2019-04-11T19:01:19.099Z,33.93
2019-04-11T19:03:22.763Z,33.33
2019-04-11T19:05:28.799Z,40.83
2019-04-11T19:07:31.882Z,33.10
2019-04-11T19:09:35.551Z,36.00
2019-04-11T19:11:39.365Z,32.70
2019-04-11T19:13:46.767Z,32.60
2019-04-11T19:15:48.463Z,34.53
2019-04-11T19:18:05.576Z,34.00
2019-04-11T19:19:57.632Z,33.97
2019-04-11T19:22:01.339Z,36.87
2019-04-11T19:24:09.079Z,34.43
2019-04-11T19:26:14.536Z,42.80
2019-04-11T19:28:16.002Z,38.20
2019-04-11T19:30:19.679Z,33.17
2019-04-11T19:32:23.380Z,39.10
2019-04-11T19:34:27.092Z,41.07
2019-04-11T19:36:30.895Z,44.27
2019-04-11T19:38:36.246Z,46.23
2019-04-11T19:40:39.910Z,35.47
2019-04-11T19:42:43.633Z,33.37
2019-04-11T19:44:49.595Z,34.00
2019-04-11T19:46:52.685Z,33.10
2019-04-11T19:48:59.316Z,33.20
2019-04-11T19:51:01.790Z,31.50
2019-04-11T19:53:05.494Z,31.20
2019-04-11T19:55:11.039Z,30.27
2019-04-11T19:57:14.738Z,31.37
2019-04-11T19:59:18.407Z,29.80
2019-04-11T20:01:23.458Z,33.30
2019-04-11T20:03:27.310Z,32.03
2019-04-11T20:05:30.972Z,30.63
2019-04-11T20:07:34.663Z,34.13
2019-04-11T20:09:38.340Z,28.30
2019-04-11T20:11:44.714Z,31.93
2019-04-11T20:13:47.881Z,32.37
2019-04-11T20:15:51.548Z,30.17
2019-04-11T20:17:55.269Z,31.73
2019-04-11T20:20:01.626Z,27.87
2019-04-11T20:22:08.257Z,33.60
2019-04-11T20:24:14.079Z,32.97
2019-04-11T20:26:15.241Z,28.13
2019-04-11T20:28:19.890Z,25.20
2019-04-11T20:30:25.400Z,34.93
2019-04-11T20:32:30.609Z,28.17
2019-04-11T20:34:38.285Z,28.17
2019-04-11T20:36:41.266Z,28.13
2019-04-11T20:38:45.606Z,27.77
2019-04-11T20:40:52.113Z,28.33
2019-04-11T20:42:55.006Z,29.00
2019-04-11T20:44:59.190Z,26.83
2019-04-11T20:47:02.957Z,25.60
2019-04-11T20:49:07.238Z,25.67
2019-04-11T20:51:10.903Z,27.63
2019-04-11T20:53:14.569Z,24.17
2019-04-11T20:55:18.351Z,25.43
2019-04-11T20:57:25.857Z,28.27
2019-04-11T20:59:34.408Z,28.13
2019-04-11T21:01:32.995Z,25.20
2019-04-11T21:03:36.655Z,24.40
2019-04-11T21:05:40.875Z,21.63
2019-04-11T21:07:44.603Z,21.60
2019-04-11T21:09:48.264Z,27.13
2019-04-11T21:11:51.963Z,24.10
2019-04-11T21:13:55.636Z,22.03
2019-04-11T21:15:59.354Z,22.53
2019-04-11T21:18:03.114Z,22.00
2019-04-11T21:20:07.813Z,21.87
2019-04-11T21:22:11.503Z,20.50
2019-04-11T21:24:15.281Z,21.47
2019-04-11T21:26:19.025Z,28.67
2019-04-11T21:28:22.706Z,23.67
2019-04-11T21:30:29.958Z,21.67
2019-04-11T21:32:32.069Z,21.47
2019-04-11T21:34:36.889Z,22.87
2019-04-11T21:36:40.771Z,23.27
2019-04-11T21:38:44.443Z,21.47
2019-04-11T21:40:48.147Z,20.77
2019-04-11T21:42:51.806Z,21.47
2019-04-11T21:44:55.481Z,22.30
2019-04-11T21:46:59.185Z,22.70
2019-04-11T21:49:06.065Z,25.23
2019-04-11T21:51:11.041Z,21.53
2019-04-11T21:53:14.972Z,20.87
2019-04-11T21:55:18.795Z,22.80
2019-04-11T21:57:22.478Z,20.87
2019-04-11T21:59:26.245Z,22.70
2019-04-11T22:01:31.263Z,23.07
2019-04-11T22:03:34.951Z,21.70
2019-04-11T22:05:38.723Z,22.70
2019-04-11T22:07:42.441Z,22.00
2019-04-11T22:09:46.116Z,23.47
2019-04-11T22:11:49.810Z,23.73
2019-04-11T22:13:53.520Z,26.87
2019-04-11T22:15:57.197Z,22.17
2019-04-11T22:18:00.935Z,26.97
2019-04-11T22:20:06.223Z,23.27
2019-04-11T22:22:09.976Z,27.83
2019-04-11T22:24:13.619Z,27.53
2019-04-11T22:26:17.292Z,35.63
2019-04-11T22:28:24.069Z,40.80
2019-04-11T22:30:28.922Z,28.03
2019-04-11T22:32:32.600Z,26.50
2019-04-11T22:34:46.492Z,26.30
2019-04-11T22:36:50.279Z,25.37
2019-04-11T22:38:53.959Z,23.97
2019-04-11T22:41:01.597Z,23.37
2019-04-11T22:43:07.161Z,28.40
2019-04-11T22:45:09.197Z,33.97
2019-04-11T22:47:12.966Z,28.63
2019-04-11T22:49:16.619Z,57.13
2019-04-11T22:51:20.312Z,48.57
2019-04-11T22:53:23.998Z,36.30
2019-04-11T22:55:27.674Z,49.00
2019-04-11T22:57:31.387Z,59.93
2019-04-11T22:59:38.128Z,49.60
2019-04-11T23:01:41.995Z,37.67
2019-04-11T23:03:53.231Z,28.20
2019-04-11T23:05:56.890Z,25.23
2019-04-11T23:08:02.762Z,31.20
2019-04-11T23:10:08.931Z,25.90
2019-04-11T23:12:12.717Z,25.87
2019-04-11T23:14:18.002Z,34.17
2019-04-11T23:16:21.671Z,37.50
2019-04-11T23:18:25.358Z,34.20
2019-04-11T23:20:29.051Z,32.73
2019-04-11T23:22:32.713Z,35.33
2019-04-11T23:24:36.410Z,54.73
2019-04-11T23:26:40.194Z,52.97
2019-04-11T23:28:46.727Z,85.90
2019-04-11T23:30:50.385Z,42.73
2019-04-11T23:32:54.137Z,32.87
2019-04-11T23:34:57.825Z,37.40
2019-04-11T23:37:01.490Z,29.07
2019-04-11T23:39:06.902Z,32.07
2019-04-11T23:41:10.562Z,30.10
2019-04-11T23:43:15.369Z,26.07
2019-04-11T23:45:23.947Z,24.87
2019-04-11T23:47:27.608Z,27.10
2019-04-11T23:49:31.307Z,29.43
2019-04-11T23:51:35.071Z,30.97
2019-04-11T23:53:38.815Z,26.50
2019-04-11T23:55:42.511Z,25.63
2019-04-11T23:57:46.181Z,25.20
2019-04-11T23:59:49.898Z,25.37
